createdAt,value
2017-07-05T00:00:50.472Z,18.25
2017-07-05T00:01:50.516Z,18.18
2017-07-05T00:02:50.552Z,18.17
2017-07-05T00:03:50.594Z,18.12
2017-07-05T00:04:50.639Z,18.19
2017-07-05T00:05:50.670Z,18.21
2017-07-05T00:06:50.711Z,18.18
2017-07-05T00:07:50.746Z,18.18
2017-07-05T00:08:50.784Z,18.15
2017-07-05T00:09:50.830Z,18.07
2017-07-05T00:10:50.868Z,18.13
2017-07-05T00:11:50.903Z,18.02
2017-07-05T00:12:50.948Z,18.07
2017-07-05T00:13:50.981Z,18.02
2017-07-05T00:14:51.024Z,18.1
2017-07-05T00:15:51.069Z,18.09
2017-07-05T00:16:51.103Z,18.25
2017-07-05T00:17:51.138Z,18.21
2017-07-05T00:18:51.181Z,18.09
2017-07-05T00:19:51.221Z,18.07
2017-07-05T00:20:51.255Z,18.22
2017-07-05T00:21:51.294Z,18.15
2017-07-05T00:22:51.336Z,18.18
2017-07-05T00:23:51.372Z,18.18
2017-07-05T00:24:51.418Z,18.09
2017-07-05T00:25:51.454Z,18.15
2017-07-05T00:26:51.495Z,18.12
2017-07-05T00:27:51.535Z,18.15
2017-07-05T00:28:51.569Z,18.19
2017-07-05T00:29:51.614Z,18.13
2017-07-05T00:30:51.651Z,18.18
2017-07-05T00:31:51.687Z,18.17
2017-07-05T00:32:51.729Z,18.13
2017-07-05T00:33:51.770Z,18.12
2017-07-05T00:34:51.805Z,18.15
2017-07-05T00:35:51.849Z,18.15
2017-07-05T00:36:51.887Z,18.12
2017-07-05T00:37:51.935Z,18.13
2017-07-05T00:38:51.962Z,18.12
2017-07-05T00:39:52.006Z,18.25
2017-07-05T00:40:52.040Z,18.18
2017-07-05T00:41:52.079Z,18.24
2017-07-05T00:42:52.126Z,18.19
2017-07-05T00:43:52.164Z,18.22
2017-07-05T00:44:52.198Z,18.25
2017-07-05T00:45:52.242Z,18.21
2017-07-05T00:46:52.277Z,18.29
2017-07-05T00:47:52.319Z,18.25
2017-07-05T00:48:52.672Z,18.24
2017-07-05T00:49:52.393Z,18.22
2017-07-05T00:50:52.451Z,18.22
2017-07-05T00:51:52.471Z,18.24
2017-07-05T00:52:52.513Z,18.21
2017-07-05T00:53:52.554Z,18.22
2017-07-05T00:54:52.590Z,18.18
2017-07-05T00:55:52.633Z,18.13
2017-07-05T00:56:52.672Z,18.13
2017-07-05T00:57:52.711Z,18.15
2017-07-05T00:58:52.751Z,18.12
2017-07-05T00:59:52.790Z,18.09
2017-07-05T01:00:52.826Z,18.07
2017-07-05T01:01:52.873Z,18.15
2017-07-05T01:02:52.903Z,18.06
2017-07-05T01:03:52.956Z,18.02
2017-07-05T01:04:52.988Z,18.13
2017-07-05T01:05:53.020Z,17.89
2017-07-05T01:06:53.071Z,18.07
2017-07-05T01:07:53.103Z,18.03
2017-07-05T01:08:53.143Z,17.91
2017-07-05T01:09:53.179Z,18
2017-07-05T01:10:53.215Z,18.07
2017-07-05T01:11:53.266Z,18.07
2017-07-05T01:12:53.295Z,18
2017-07-05T01:13:53.339Z,18.04
2017-07-05T01:14:53.384Z,18.13
2017-07-05T01:15:53.419Z,18.09
2017-07-05T01:16:53.455Z,17.97
2017-07-05T01:17:53.502Z,18.03
2017-07-05T01:18:53.534Z,17.97
2017-07-05T01:19:53.573Z,18.04
2017-07-05T01:20:53.929Z,18.04
2017-07-05T01:21:53.653Z,18.09
2017-07-05T01:22:53.696Z,18.07
2017-07-05T01:23:54.045Z,18.22
2017-07-05T01:24:53.766Z,18.04
2017-07-05T01:25:53.811Z,17.99
2017-07-05T01:26:53.855Z,18.13
2017-07-05T01:27:53.888Z,18.12
2017-07-05T01:28:53.927Z,18.07
2017-07-05T01:29:53.966Z,18
2017-07-05T01:30:54.006Z,18.02
2017-07-05T01:31:54.043Z,17.99
2017-07-05T01:32:54.084Z,18.02
2017-07-05T01:33:54.118Z,18.06
2017-07-05T01:34:54.161Z,18.02
2017-07-05T01:35:54.202Z,17.95
2017-07-05T01:36:54.238Z,18.13
2017-07-05T01:37:54.275Z,18.07
2017-07-05T01:38:54.314Z,18.04
2017-07-05T01:39:54.356Z,18.1
2017-07-05T01:40:54.392Z,18.07
2017-07-05T01:41:54.435Z,18.15
2017-07-05T01:42:54.474Z,18.21
2017-07-05T01:43:54.508Z,18.09
2017-07-05T01:44:54.554Z,18.17
2017-07-05T01:45:54.592Z,18.21
2017-07-05T01:46:54.625Z,18.12
2017-07-05T01:47:54.671Z,18.13
2017-07-05T01:48:54.709Z,18.15
2017-07-05T01:49:54.743Z,18.13
2017-07-05T01:50:54.788Z,18.13
2017-07-05T01:51:54.822Z,18.15
2017-07-05T01:52:54.865Z,18.15
2017-07-05T01:53:54.907Z,18.13
2017-07-05T01:54:54.942Z,18.13
2017-07-05T01:55:54.984Z,18.17
2017-07-05T01:56:55.022Z,18.15
2017-07-05T01:57:55.057Z,18.13
2017-07-05T01:58:55.102Z,18.15
2017-07-05T01:59:55.136Z,18.18
2017-07-05T02:00:55.179Z,18.19
2017-07-05T02:01:55.215Z,18.17
2017-07-05T02:02:55.258Z,18.12
2017-07-05T02:03:55.298Z,18.19
2017-07-05T02:04:55.332Z,18.22
2017-07-05T02:05:55.375Z,18.13
2017-07-05T02:06:55.415Z,18.22
2017-07-05T02:07:55.454Z,18.12
2017-07-05T02:08:55.492Z,18.17
2017-07-05T02:09:55.533Z,18.1
2017-07-05T02:10:55.571Z,18.17
2017-07-05T02:11:55.606Z,18.15
2017-07-05T02:12:55.651Z,18.13
2017-07-05T02:13:55.689Z,18.17
2017-07-05T02:14:55.723Z,18.15
2017-07-05T02:15:55.763Z,18.12
2017-07-05T02:16:55.806Z,18.17
2017-07-05T02:17:55.843Z,18.1
2017-07-05T02:18:55.883Z,18.13
2017-07-05T02:19:55.924Z,18.17
2017-07-05T02:20:55.961Z,18.17
2017-07-05T02:21:56.004Z,18.15
2017-07-05T02:22:56.036Z,18.09
2017-07-05T02:23:56.080Z,18.21
2017-07-05T02:24:56.120Z,18.17
2017-07-05T02:25:56.160Z,18.13
2017-07-05T02:26:56.199Z,18.18
2017-07-05T02:27:56.236Z,18.15
2017-07-05T02:28:56.283Z,18.18
2017-07-05T02:29:56.313Z,18.15
2017-07-05T02:30:56.356Z,18.1
2017-07-05T02:31:56.391Z,18.1
2017-07-05T02:32:56.435Z,18.18
2017-07-05T02:33:56.472Z,18.09
2017-07-05T02:34:56.508Z,18.12
2017-07-05T02:35:56.547Z,18.18
2017-07-05T02:36:56.590Z,18.21
2017-07-05T02:37:56.633Z,18.18
2017-07-05T02:38:56.665Z,18.18
2017-07-05T02:39:56.705Z,18.13
2017-07-05T02:40:56.743Z,18.13
2017-07-05T02:41:56.787Z,18.06
2017-07-05T02:42:56.825Z,18.07
2017-07-05T02:43:56.863Z,18.09
2017-07-05T02:44:56.904Z,18.09
2017-07-05T02:45:56.942Z,18.04
2017-07-05T02:46:56.985Z,18.04
2017-07-05T02:47:57.015Z,17.95
2017-07-05T02:48:57.059Z,18.07
2017-07-05T02:49:57.102Z,18.1
2017-07-05T02:50:57.140Z,18.04
2017-07-05T02:51:57.177Z,18.06
2017-07-05T02:52:57.218Z,18.04
2017-07-05T02:53:57.257Z,18.1
2017-07-05T02:54:57.302Z,18.06
2017-07-05T02:55:57.653Z,18
2017-07-05T02:56:57.375Z,18.06
2017-07-05T02:57:57.413Z,17.97
2017-07-05T02:58:57.450Z,18.03
2017-07-05T02:59:57.503Z,18.09
2017-07-05T03:00:57.527Z,18.07
2017-07-05T03:01:57.572Z,17.97
2017-07-05T03:02:57.604Z,18.09
2017-07-05T03:03:57.650Z,18
2017-07-05T03:04:57.689Z,18.12
2017-07-05T03:05:57.722Z,18
2017-07-05T03:06:57.766Z,18
2017-07-05T03:07:57.804Z,18.04
2017-07-05T03:08:57.843Z,18.04
2017-07-05T03:09:57.878Z,18.02
2017-07-05T03:10:57.923Z,18.02
2017-07-05T03:11:57.960Z,18.02
2017-07-05T03:12:57.997Z,17.92
2017-07-05T03:13:58.040Z,17.89
2017-07-05T03:14:58.078Z,17.91
2017-07-05T03:15:58.114Z,18
2017-07-05T03:16:58.157Z,17.99
2017-07-05T03:17:58.194Z,17.99
2017-07-05T03:18:58.235Z,18
2017-07-05T03:19:58.274Z,17.94
2017-07-05T03:20:58.312Z,17.95
2017-07-05T03:21:58.345Z,17.94
2017-07-05T03:22:58.396Z,17.88
2017-07-05T03:23:58.433Z,17.88
2017-07-05T03:24:58.470Z,17.84
2017-07-05T03:25:58.503Z,17.87
2017-07-05T03:26:58.543Z,17.85
2017-07-05T03:27:58.589Z,17.82
2017-07-05T03:28:58.623Z,17.85
2017-07-05T03:29:58.668Z,17.88
2017-07-05T03:30:58.703Z,17.81
2017-07-05T03:31:58.735Z,17.74
2017-07-05T03:32:58.781Z,17.89
2017-07-05T03:33:58.821Z,17.81
2017-07-05T03:34:58.854Z,17.82
2017-07-05T03:35:58.897Z,17.81
2017-07-05T03:36:58.937Z,17.79
2017-07-05T03:37:58.976Z,17.71
2017-07-05T03:38:59.011Z,17.78
2017-07-05T03:39:59.107Z,17.79
2017-07-05T03:40:59.091Z,17.74
2017-07-05T03:41:59.132Z,17.73
2017-07-05T03:42:59.173Z,17.84
2017-07-05T03:43:59.202Z,17.82
2017-07-05T03:44:59.245Z,17.82
2017-07-05T03:45:59.287Z,17.76
2017-07-05T03:46:59.325Z,17.81
2017-07-05T03:47:59.361Z,17.85
2017-07-05T03:48:59.405Z,17.88
2017-07-05T03:49:59.439Z,18
2017-07-05T03:50:59.478Z,18.06
2017-07-05T03:51:59.522Z,18.24
2017-07-05T03:52:59.562Z,18.44
2017-07-05T03:53:59.601Z,18.82
2017-07-05T03:54:59.637Z,19.14
2017-07-05T03:55:59.680Z,19.61
2017-07-05T03:56:59.719Z,19.87
2017-07-05T03:57:59.758Z,20.24
2017-07-05T03:58:59.798Z,20.41
2017-07-05T03:59:59.838Z,20.54
2017-07-05T04:00:59.878Z,20.56
2017-07-05T04:01:59.912Z,20.46
2017-07-05T04:02:59.958Z,20.34
2017-07-05T04:03:59.994Z,20.39
2017-07-05T04:05:00.039Z,20.39
2017-07-05T04:06:00.078Z,20.47
2017-07-05T04:07:00.114Z,20.53
2017-07-05T04:08:00.152Z,20.61
2017-07-05T04:09:00.193Z,20.59
2017-07-05T04:10:00.239Z,20.54
2017-07-05T04:11:00.272Z,20.54
2017-07-05T04:12:00.317Z,20.49
2017-07-05T04:13:00.355Z,20.5
2017-07-05T04:14:00.396Z,20.51
2017-07-05T04:15:00.440Z,20.56
2017-07-05T04:16:00.474Z,20.47
2017-07-05T04:17:00.835Z,20.49
2017-07-05T04:18:00.559Z,20.28
2017-07-05T04:19:00.636Z,20.27
2017-07-05T04:20:00.634Z,20.27
2017-07-05T04:21:00.680Z,20.24
2017-07-05T04:22:00.716Z,20.16
2017-07-05T04:23:00.760Z,20.16
2017-07-05T04:24:00.801Z,20.34
2017-07-05T04:25:00.837Z,20.58
2017-07-05T04:26:00.879Z,20.95
2017-07-05T04:27:00.917Z,21.08
2017-07-05T04:28:00.958Z,21.44
2017-07-05T04:29:00.999Z,21.72
2017-07-05T04:30:01.043Z,21.85
2017-07-05T04:31:01.084Z,21.82
2017-07-05T04:32:01.125Z,21.85
2017-07-05T04:33:01.162Z,21.82
2017-07-05T04:34:01.201Z,22.06
2017-07-05T04:35:01.247Z,22.19
2017-07-05T04:36:01.289Z,22.17
2017-07-05T04:37:01.325Z,22.28
2017-07-05T04:38:01.366Z,22.19
2017-07-05T04:39:01.405Z,22.1
2017-07-05T04:40:01.453Z,22.17
2017-07-05T04:41:01.490Z,22.23
2017-07-05T04:42:01.534Z,22.23
2017-07-05T04:43:01.575Z,22.19
2017-07-05T04:44:01.616Z,22.14
2017-07-05T04:45:01.652Z,22.04
2017-07-05T04:46:01.698Z,21.92
2017-07-05T04:47:01.741Z,21.92
2017-07-05T04:48:01.779Z,22.25
2017-07-05T04:49:01.820Z,22.59
2017-07-05T04:50:01.861Z,22.97
2017-07-05T04:51:01.899Z,23.32
2017-07-05T04:52:01.943Z,23.62
2017-07-05T04:53:01.983Z,24
2017-07-05T04:54:02.027Z,24.32
2017-07-05T04:55:02.065Z,24.87
2017-07-05T04:56:02.105Z,25.32
2017-07-05T04:57:02.152Z,25.49
2017-07-05T04:58:02.190Z,25.47
2017-07-05T04:59:02.232Z,25.39
2017-07-05T05:00:02.293Z,25.13
2017-07-05T05:01:02.320Z,24.98
2017-07-05T05:02:02.364Z,24.91
2017-07-05T05:03:02.408Z,24.53
2017-07-05T05:04:02.447Z,24.37
2017-07-05T05:05:02.492Z,24.22
2017-07-05T05:06:02.531Z,24.05
2017-07-05T05:07:02.576Z,23.85
2017-07-05T05:08:02.621Z,23.75
2017-07-05T05:09:02.670Z,23.62
2017-07-05T05:10:02.707Z,23.53
2017-07-05T05:11:02.748Z,23.47
2017-07-05T05:12:02.791Z,23.62
2017-07-05T05:13:02.829Z,23.72
2017-07-05T05:14:02.876Z,23.72
2017-07-05T05:15:02.919Z,23.77
2017-07-05T05:16:02.960Z,23.8
2017-07-05T05:17:03.004Z,23.79
2017-07-05T05:18:03.040Z,23.9
2017-07-05T05:19:03.083Z,23.92
2017-07-05T05:20:03.132Z,23.87
2017-07-05T05:21:03.176Z,23.89
2017-07-05T05:22:03.212Z,23.83
2017-07-05T05:23:03.259Z,23.77
2017-07-05T05:24:03.303Z,23.71
2017-07-05T05:25:03.343Z,23.72
2017-07-05T05:26:03.383Z,23.77
2017-07-05T05:27:03.428Z,23.8
2017-07-05T05:28:03.471Z,23.83
2017-07-05T05:29:03.516Z,23.86
2017-07-05T05:30:03.555Z,23.95
2017-07-05T05:31:03.597Z,23.9
2017-07-05T05:32:03.639Z,24.04
2017-07-05T05:33:03.684Z,24.08
2017-07-05T05:34:03.733Z,24.14
2017-07-05T05:35:03.766Z,24.13
2017-07-05T05:36:03.818Z,24.23
2017-07-05T05:37:03.860Z,24.2
2017-07-05T05:38:03.893Z,24.2
2017-07-05T05:39:03.937Z,24.13
2017-07-05T05:40:03.976Z,24.02
2017-07-05T05:41:04.022Z,24.08
2017-07-05T05:42:04.068Z,24.08
2017-07-05T05:43:04.113Z,24.04
2017-07-05T05:44:04.150Z,24
2017-07-05T05:45:04.202Z,23.98
2017-07-05T05:46:04.249Z,23.95
2017-07-05T05:47:04.294Z,23.87
2017-07-05T05:48:04.320Z,23.97
2017-07-05T05:49:04.361Z,23.94
2017-07-05T05:50:04.406Z,24.12
2017-07-05T05:51:04.454Z,24.31
2017-07-05T05:52:04.490Z,24.52
2017-07-05T05:53:04.534Z,24.57
2017-07-05T05:54:04.578Z,24.56
2017-07-05T05:55:04.628Z,24.61
2017-07-05T05:56:04.663Z,24.75
2017-07-05T05:57:05.529Z,24.87
2017-07-05T05:58:04.987Z,24.98
2017-07-05T05:59:04.792Z,25.15
2017-07-05T06:00:04.836Z,25.07
2017-07-05T06:01:04.881Z,25
2017-07-05T06:02:05.164Z,24.88
2017-07-05T06:03:04.964Z,24.91
2017-07-05T06:04:05.008Z,24.75
2017-07-05T06:05:05.049Z,24.68
2017-07-05T06:06:05.093Z,24.56
2017-07-05T06:07:05.142Z,24.34
2017-07-05T06:08:05.183Z,24.31
2017-07-05T06:09:05.222Z,24.34
2017-07-05T06:10:05.269Z,24.29
2017-07-05T06:11:05.312Z,24.24
2017-07-05T06:12:05.354Z,24.14
2017-07-05T06:13:05.394Z,24.24
2017-07-05T06:14:05.759Z,24.23
2017-07-05T06:15:05.484Z,24.24
2017-07-05T06:16:05.524Z,24.22
2017-07-05T06:17:05.564Z,24.38
2017-07-05T06:18:05.608Z,24.31
2017-07-05T06:19:05.655Z,24.32
2017-07-05T06:20:05.696Z,24.37
2017-07-05T06:21:05.736Z,24.31
2017-07-05T06:22:05.781Z,24.22
2017-07-05T06:23:05.824Z,24.22
2017-07-05T06:24:05.864Z,24.2
2017-07-05T06:25:05.909Z,24.29
2017-07-05T06:26:05.950Z,24.32
2017-07-05T06:27:05.994Z,24.24
2017-07-05T06:28:06.036Z,24.17
2017-07-05T06:29:06.084Z,24.19
2017-07-05T06:30:06.126Z,24.22
2017-07-05T06:31:06.164Z,24.14
2017-07-05T06:32:06.206Z,24.04
2017-07-05T06:33:06.253Z,23.97
2017-07-05T06:34:06.291Z,23.9
2017-07-05T06:35:06.338Z,23.8
2017-07-05T06:36:06.374Z,23.76
2017-07-05T06:37:06.529Z,23.58
2017-07-05T06:38:06.466Z,23.46
2017-07-05T06:39:06.501Z,23.31
2017-07-05T06:40:06.551Z,23.34
2017-07-05T06:41:06.588Z,23.31
2017-07-05T06:42:06.635Z,23.46
2017-07-05T06:43:06.671Z,23.6
2017-07-05T06:44:06.720Z,23.85
2017-07-05T06:45:06.797Z,24.02
2017-07-05T06:46:06.806Z,24.29
2017-07-05T06:47:06.845Z,24.41
2017-07-05T06:48:06.890Z,24.91
2017-07-05T06:49:06.936Z,25.19
2017-07-05T06:50:06.973Z,25.72
2017-07-05T06:51:07.022Z,26.02
2017-07-05T06:52:07.062Z,26.28
2017-07-05T06:53:07.114Z,26.37
2017-07-05T06:54:07.153Z,26.44
2017-07-05T06:55:07.513Z,26.32
2017-07-05T06:56:07.234Z,26.36
2017-07-05T06:57:07.285Z,26.28
2017-07-05T06:58:07.943Z,26.01
2017-07-05T06:59:07.369Z,25.82
2017-07-05T07:00:07.412Z,25.56
2017-07-05T07:01:08.077Z,25.44
2017-07-05T07:02:07.502Z,25.17
2017-07-05T07:03:07.545Z,25.12
2017-07-05T07:04:07.586Z,24.91
2017-07-05T07:05:08.352Z,24.73
2017-07-05T07:06:07.680Z,24.6
2017-07-05T07:07:07.718Z,24.44
2017-07-05T07:08:07.759Z,24.38
2017-07-05T07:09:07.801Z,24.22
2017-07-05T07:10:07.851Z,24.2
2017-07-05T07:11:07.889Z,24.02
2017-07-05T07:12:07.935Z,24.04
2017-07-05T07:13:07.981Z,23.87
2017-07-05T07:14:08.018Z,23.86
2017-07-05T07:15:08.064Z,23.85
2017-07-05T07:16:08.102Z,23.76
2017-07-05T07:17:08.154Z,23.8
2017-07-05T07:18:08.191Z,23.62
2017-07-05T07:19:08.460Z,23.61
2017-07-05T07:20:08.276Z,23.55
2017-07-05T07:21:08.318Z,23.5
2017-07-05T07:22:08.484Z,23.29
2017-07-05T07:23:08.398Z,23.26
2017-07-05T07:24:08.444Z,23.24
2017-07-05T07:25:08.504Z,23.23
2017-07-05T07:26:08.527Z,23.05
2017-07-05T07:27:08.567Z,23.19
2017-07-05T07:28:08.609Z,22.93
2017-07-05T07:29:08.656Z,22.92
2017-07-05T07:30:08.691Z,22.77
2017-07-05T07:31:08.733Z,22.65
2017-07-05T07:32:08.780Z,22.67
2017-07-05T07:33:08.830Z,22.53
2017-07-05T07:34:08.918Z,22.62
2017-07-05T07:35:08.940Z,22.59
2017-07-05T07:36:08.947Z,22.6
2017-07-05T07:37:08.988Z,22.62
2017-07-05T07:38:09.023Z,22.53
2017-07-05T07:39:09.067Z,22.57
2017-07-05T07:40:09.108Z,22.47
2017-07-05T07:41:12.033Z,22.54
2017-07-05T07:42:14.566Z,22.59
2017-07-05T07:43:09.233Z,22.44
2017-07-05T07:44:09.273Z,22.44
2017-07-05T07:45:10.530Z,22.38
2017-07-05T07:46:09.359Z,22.31
2017-07-05T07:47:09.397Z,22.29
2017-07-05T07:48:09.439Z,22.28
2017-07-05T07:49:10.959Z,22.19
2017-07-05T07:50:11.539Z,22.22
2017-07-05T07:51:09.612Z,22.12
2017-07-05T07:52:09.617Z,22.2
2017-07-05T07:53:09.649Z,22.13
2017-07-05T07:54:09.690Z,22.16
2017-07-05T07:55:09.730Z,22.25
2017-07-05T07:56:09.820Z,22.2
2017-07-05T07:57:09.814Z,22.28
2017-07-05T07:58:09.870Z,22.32
2017-07-05T07:59:09.908Z,22.29
2017-07-05T08:00:09.940Z,22.43
2017-07-05T08:01:09.983Z,22.35
2017-07-05T08:02:10.164Z,22.39
2017-07-05T08:03:10.061Z,22.53
2017-07-05T08:04:10.112Z,22.59
2017-07-05T08:05:10.148Z,22.57
2017-07-05T08:06:10.190Z,22.62
2017-07-05T08:07:10.228Z,22.69
2017-07-05T08:08:10.271Z,22.54
2017-07-05T08:09:10.315Z,22.6
2017-07-05T08:10:10.356Z,22.57
2017-07-05T08:11:10.403Z,22.68
2017-07-05T08:12:10.440Z,22.65
2017-07-05T08:13:10.477Z,22.53
2017-07-05T08:14:10.522Z,22.59
2017-07-05T08:15:10.562Z,22.57
2017-07-05T08:16:10.610Z,22.67
2017-07-05T08:17:10.642Z,22.57
2017-07-05T08:18:10.686Z,22.54
2017-07-05T08:19:10.729Z,22.53
2017-07-05T08:20:10.772Z,22.47
2017-07-05T08:21:10.813Z,22.46
2017-07-05T08:22:10.849Z,22.47
2017-07-05T08:23:10.895Z,22.37
2017-07-05T08:24:10.933Z,22.41
2017-07-05T08:25:10.974Z,22.31
2017-07-05T08:26:11.021Z,22.31
2017-07-05T08:27:11.058Z,22.27
2017-07-05T08:28:11.101Z,22.29
2017-07-05T08:29:11.138Z,22.25
2017-07-05T08:30:11.184Z,22.22
2017-07-05T08:31:11.226Z,22.28
2017-07-05T08:32:11.261Z,22.22
2017-07-05T08:33:11.309Z,22.16
2017-07-05T08:34:11.350Z,22.19
2017-07-05T08:35:11.449Z,22.1
2017-07-05T08:36:11.429Z,22.09
2017-07-05T08:37:11.473Z,22.12
2017-07-05T08:38:11.516Z,22.09
2017-07-05T08:39:11.558Z,22.13
2017-07-05T08:40:11.591Z,22.06
2017-07-05T08:41:11.639Z,22.17
2017-07-05T08:42:11.675Z,22.19
2017-07-05T08:43:11.722Z,22.14
2017-07-05T08:44:11.759Z,22.16
2017-07-05T08:45:11.805Z,22.23
2017-07-05T08:46:11.845Z,22.17
2017-07-05T08:47:11.882Z,22.28
2017-07-05T08:48:11.922Z,22.23
2017-07-05T08:49:11.971Z,22.32
2017-07-05T08:50:12.004Z,22.34
2017-07-05T08:51:12.049Z,22.35
2017-07-05T08:52:12.089Z,22.35
2017-07-05T08:53:12.136Z,22.32
2017-07-05T08:54:12.172Z,22.32
2017-07-05T08:55:12.213Z,22.32
2017-07-05T08:56:12.261Z,22.34
2017-07-05T08:57:12.306Z,22.43
2017-07-05T08:58:12.340Z,22.38
2017-07-05T08:59:12.381Z,22.41
2017-07-05T09:00:12.423Z,22.41
2017-07-05T09:01:13.915Z,22.47
2017-07-05T09:02:12.501Z,22.59
2017-07-05T09:03:12.865Z,22.54
2017-07-05T09:04:12.596Z,22.6
2017-07-05T09:05:12.633Z,22.71
2017-07-05T09:06:12.678Z,22.82
2017-07-05T09:07:12.715Z,23.04
2017-07-05T09:08:12.757Z,23.24
2017-07-05T09:09:12.797Z,23.49
2017-07-05T09:10:12.841Z,23.7
2017-07-05T09:11:12.887Z,23.92
2017-07-05T09:12:12.925Z,24.27
2017-07-05T09:13:12.971Z,24.63
2017-07-05T09:14:13.009Z,25
2017-07-05T09:15:13.059Z,25.27
2017-07-05T09:16:13.097Z,25.54
2017-07-05T09:17:13.146Z,25.79
2017-07-05T09:18:13.187Z,25.8
2017-07-05T09:19:13.235Z,26.01
2017-07-05T09:20:13.279Z,26.02
2017-07-05T09:21:13.665Z,26.15
2017-07-05T09:22:13.368Z,26.05
2017-07-05T09:23:13.413Z,26.11
2017-07-05T09:24:13.451Z,25.99
2017-07-05T09:25:13.500Z,26.05
2017-07-05T09:26:13.542Z,25.98
2017-07-05T09:27:13.591Z,26.01
2017-07-05T09:28:13.634Z,25.9
2017-07-05T09:29:13.675Z,25.91
2017-07-05T09:30:13.725Z,25.84
2017-07-05T09:31:13.766Z,25.89
2017-07-05T09:32:13.812Z,25.84
2017-07-05T09:33:13.853Z,25.74
2017-07-05T09:34:13.895Z,25.77
2017-07-05T09:35:13.947Z,25.82
2017-07-05T09:36:13.992Z,25.65
2017-07-05T09:37:14.038Z,25.77
2017-07-05T09:38:14.074Z,25.9
2017-07-05T09:39:14.120Z,25.87
2017-07-05T09:40:14.490Z,26.06
2017-07-05T09:41:14.213Z,26.15
2017-07-05T09:42:14.254Z,26.25
2017-07-05T09:43:14.300Z,26.46
2017-07-05T09:44:14.360Z,26.47
2017-07-05T09:45:14.393Z,26.72
2017-07-05T09:46:14.440Z,26.72
2017-07-05T09:47:14.484Z,26.84
2017-07-05T09:48:14.526Z,26.96
2017-07-05T09:49:14.576Z,27.02
2017-07-05T09:50:14.633Z,27.01
2017-07-05T09:51:14.662Z,27.09
2017-07-05T09:52:14.707Z,27.11
2017-07-05T09:53:14.754Z,27.21
2017-07-05T09:54:14.805Z,27.26
2017-07-05T09:55:14.861Z,27.28
2017-07-05T09:56:14.895Z,27.35
2017-07-05T09:57:14.993Z,27.38
2017-07-05T09:58:14.984Z,27.43
2017-07-05T09:59:15.034Z,27.47
2017-07-05T10:00:15.076Z,27.51
2017-07-05T10:01:15.125Z,27.54
2017-07-05T10:02:15.173Z,27.61
2017-07-05T10:03:15.222Z,27.73
2017-07-05T10:04:15.265Z,27.79
2017-07-05T10:05:15.307Z,27.88
2017-07-05T10:06:15.358Z,27.99
2017-07-05T10:07:15.401Z,28.03
2017-07-05T10:08:15.447Z,28.03
2017-07-05T10:09:15.497Z,28.04
2017-07-05T10:10:15.541Z,28.1
2017-07-05T10:11:15.588Z,28.1
2017-07-05T10:12:15.645Z,28.06
2017-07-05T10:13:15.687Z,28.06
2017-07-05T10:14:15.730Z,28.07
2017-07-05T10:15:15.782Z,28.14
2017-07-05T10:16:15.829Z,28.22
2017-07-05T10:17:15.873Z,28.38
2017-07-05T10:18:15.927Z,28.41
2017-07-05T10:19:15.973Z,28.56
2017-07-05T10:20:16.032Z,28.9
2017-07-05T10:21:16.069Z,29.03
2017-07-05T10:22:16.114Z,29.11
2017-07-05T10:23:16.166Z,29.35
2017-07-05T10:24:16.220Z,29.31
2017-07-05T10:25:16.265Z,29.49
2017-07-05T10:26:16.319Z,29.53
2017-07-05T10:27:16.365Z,29.53
2017-07-05T10:28:16.424Z,29.47
2017-07-05T10:29:16.466Z,29.4
2017-07-05T10:30:16.523Z,29.41
2017-07-05T10:31:16.569Z,29.33
2017-07-05T10:32:16.622Z,29.23
2017-07-05T10:33:16.666Z,29.06
2017-07-05T10:34:16.738Z,29.01
2017-07-05T10:35:16.768Z,28.95
2017-07-05T10:36:16.823Z,28.88
2017-07-05T10:37:16.866Z,28.78
2017-07-05T10:38:16.921Z,28.7
2017-07-05T10:39:16.972Z,28.63
2017-07-05T10:40:17.016Z,28.62
2017-07-05T10:41:17.069Z,28.48
2017-07-05T10:42:17.114Z,28.44
2017-07-05T10:43:17.169Z,28.44
2017-07-05T10:44:17.218Z,28.41
2017-07-05T10:45:17.260Z,28.44
2017-07-05T10:46:17.314Z,28.44
2017-07-05T10:47:17.358Z,28.41
2017-07-05T10:48:17.403Z,28.38
2017-07-05T10:49:17.466Z,28.43
2017-07-05T10:50:17.504Z,28.48
2017-07-05T10:51:17.550Z,28.44
2017-07-05T10:52:17.605Z,28.5
2017-07-05T10:53:17.652Z,28.68
2017-07-05T10:54:17.709Z,28.66
2017-07-05T10:55:17.745Z,28.78
2017-07-05T10:56:17.800Z,28.8
2017-07-05T10:57:17.858Z,28.87
2017-07-05T10:58:17.893Z,28.84
2017-07-05T10:59:17.959Z,28.87
2017-07-05T11:00:17.997Z,28.81
2017-07-05T11:01:18.047Z,28.75
2017-07-05T11:02:18.091Z,28.78
2017-07-05T11:03:18.146Z,28.82
2017-07-05T11:04:18.193Z,28.84
2017-07-05T11:05:18.247Z,28.81
2017-07-05T11:06:18.299Z,28.9
2017-07-05T11:07:18.662Z,28.85
2017-07-05T11:08:18.404Z,28.96
2017-07-05T11:09:18.444Z,28.91
2017-07-05T11:10:18.492Z,29.01
2017-07-05T11:11:18.562Z,28.96
2017-07-05T11:12:18.599Z,28.93
2017-07-05T11:13:18.644Z,28.95
2017-07-05T11:14:18.698Z,28.85
2017-07-05T11:15:18.743Z,28.78
2017-07-05T11:16:18.795Z,28.77
2017-07-05T11:17:18.846Z,28.75
2017-07-05T11:18:18.897Z,28.69
2017-07-05T11:19:18.946Z,28.72
2017-07-05T11:20:19.040Z,28.66
2017-07-05T11:21:19.068Z,28.5
2017-07-05T11:22:19.083Z,28.56
2017-07-05T11:23:19.149Z,28.44
2017-07-05T11:24:19.181Z,28.51
2017-07-05T11:25:19.229Z,28.35
2017-07-05T11:26:19.283Z,28.26
2017-07-05T11:27:19.329Z,28.22
2017-07-05T11:28:19.378Z,28.16
2017-07-05T11:29:19.421Z,28.14
2017-07-05T11:30:19.786Z,28.06
2017-07-05T11:31:19.518Z,28.07
2017-07-05T11:32:19.561Z,28.16
2017-07-05T11:33:19.612Z,28.01
2017-07-05T11:34:19.658Z,28.06
2017-07-05T11:35:19.701Z,27.94
2017-07-05T11:36:19.752Z,27.95
2017-07-05T11:37:19.797Z,27.94
2017-07-05T11:38:19.838Z,27.88
2017-07-05T11:39:19.899Z,27.86
2017-07-05T11:40:19.941Z,27.76
2017-07-05T11:41:19.982Z,27.77
2017-07-05T11:42:20.024Z,27.77
2017-07-05T11:43:20.077Z,27.73
2017-07-05T11:44:20.118Z,27.82
2017-07-05T11:45:20.169Z,27.85
2017-07-05T11:46:20.211Z,27.85
2017-07-05T11:47:20.348Z,27.8
2017-07-05T11:48:20.309Z,27.8
2017-07-05T11:49:20.350Z,27.85
2017-07-05T11:50:20.395Z,27.77
2017-07-05T11:51:20.769Z,27.76
2017-07-05T11:52:20.491Z,27.7
2017-07-05T11:53:20.549Z,27.67
2017-07-05T11:54:20.581Z,27.73
2017-07-05T11:55:20.628Z,27.59
2017-07-05T11:56:20.685Z,27.61
2017-07-05T11:57:20.723Z,27.61
2017-07-05T11:58:20.768Z,27.62
2017-07-05T11:59:20.836Z,27.62
2017-07-05T12:00:20.856Z,27.54
2017-07-05T12:01:20.906Z,27.64
2017-07-05T12:02:20.953Z,27.64
2017-07-05T12:03:21.008Z,27.53
2017-07-05T12:04:21.043Z,27.58
2017-07-05T12:05:21.084Z,27.59
2017-07-05T12:06:21.130Z,27.5
2017-07-05T12:07:21.174Z,27.58
2017-07-05T12:08:21.223Z,27.53
2017-07-05T12:09:21.267Z,27.51
2017-07-05T12:10:21.310Z,27.62
2017-07-05T12:11:21.358Z,27.59
2017-07-05T12:12:21.406Z,27.59
2017-07-05T12:13:21.451Z,27.71
2017-07-05T12:14:21.497Z,27.77
2017-07-05T12:15:21.543Z,27.89
2017-07-05T12:16:21.595Z,27.85
2017-07-05T12:17:21.630Z,27.95
2017-07-05T12:18:21.681Z,27.92
2017-07-05T12:19:21.721Z,27.98
2017-07-05T12:20:21.773Z,28.01
2017-07-05T12:21:21.819Z,28.16
2017-07-05T12:22:21.864Z,28.03
2017-07-05T12:23:21.906Z,28.1
2017-07-05T12:24:21.956Z,28.03
2017-07-05T12:25:22.004Z,28.09
2017-07-05T12:26:22.047Z,28.04
2017-07-05T12:27:22.092Z,28.07
2017-07-05T12:28:22.137Z,28.06
2017-07-05T12:29:22.188Z,28.03
2017-07-05T12:30:22.228Z,28.06
2017-07-05T12:31:22.274Z,27.99
2017-07-05T12:32:22.322Z,28.04
2017-07-05T12:33:22.366Z,27.94
2017-07-05T12:34:22.414Z,28.03
2017-07-05T12:35:22.459Z,27.98
2017-07-05T12:36:22.510Z,28.04
2017-07-05T12:37:22.555Z,27.99
2017-07-05T12:38:22.623Z,27.92
2017-07-05T12:39:22.642Z,27.98
2017-07-05T12:40:22.693Z,27.98
2017-07-05T12:41:22.736Z,27.84
2017-07-05T12:42:22.778Z,27.96
2017-07-05T12:43:22.828Z,27.85
2017-07-05T12:44:22.870Z,27.79
2017-07-05T12:45:22.919Z,27.86
2017-07-05T12:46:22.969Z,27.85
2017-07-05T12:47:23.013Z,27.82
2017-07-05T12:48:23.280Z,27.76
2017-07-05T12:49:23.099Z,27.62
2017-07-05T12:50:23.146Z,27.54
2017-07-05T12:51:23.197Z,27.53
2017-07-05T12:52:23.556Z,27.53
2017-07-05T12:53:23.282Z,27.51
2017-07-05T12:54:23.331Z,27.54
2017-07-05T12:55:23.373Z,27.48
2017-07-05T12:56:23.418Z,27.46